Time;durP1;ratioP1;P1;durP2;ratioP2;P2;SDS_P1;SDS_P2;PMS_P1;PMS_P2;Temp;Humidity;BMP_temperature;BMP_pressure;BME280_temperature;BME280_humidity;BME280_pressure;Samples;Min_cycle;Max_cycle;Signal;HPM_P1;HPM_P2
2022/11/21 00:00:53;;;;;;;5.97;1.05;;;;;;;1.23;100.00;92304.78;2131822;27;20058;-73
2022/11/21 00:01:54;;;;;;;8.35;0.80;;;;;;;1.24;100.00;92298.41;2132294;27;20026;-73
2022/11/21 00:03:02;;;;;;;3.92;1.38;;;;;;;1.50;100.00;92307.78;2132059;27;20126;-72
2022/11/21 00:04:03;;;;;;;8.38;1.20;;;;;;;1.56;100.00;92302.88;2132315;27;20091;-73
2022/11/21 00:05:04;;;;;;;7.88;1.15;;;;;;;1.50;100.00;92299.88;2132183;27;20046;-73
2022/11/21 00:06:05;;;;;;;6.13;1.00;;;;;;;1.42;100.00;92293.13;2131716;27;20026;-73
2022/11/21 00:07:06;;;;;;;3.00;0.95;;;;;;;1.46;100.00;92293.88;2131868;27;20014;-73
2022/11/21 00:08:11;;;;;;;5.25;0.70;;;;;;;1.37;100.00;92285.59;2122714;27;20023;-73
2022/11/21 00:09:12;;;;;;;3.08;1.10;;;;;;;1.31;100.00;92279.19;2128438;27;20026;-74
2022/11/21 00:10:13;;;;;;;3.42;1.00;;;;;;;1.58;100.00;92279.53;2140414;27;20071;-74
2022/11/21 00:11:15;;;;;;;7.93;1.00;;;;;;;1.58;100.00;92279.53;2135624;27;20027;-73
2022/11/21 00:12:16;;;;;;;3.58;1.60;;;;;;;1.48;100.00;92275.78;2131983;27;20528;-74
2022/11/21 00:13:19;;;;;;;3.50;0.98;;;;;;;1.54;100.00;92268.25;2131825;27;20062;-74
2022/11/21 00:14:20;;;;;;;6.68;1.17;;;;;;;1.44;100.00;92270.53;2131831;27;20109;-74
2022/11/21 00:15:22;;;;;;;1.77;0.80;;;;;;;1.42;100.00;92275.44;2131791;27;20683;-74
2022/11/21 00:16:23;;;;;;;7.60;2.10;;;;;;;1.41;100.00;92273.94;2130986;27;20022;-74
2022/11/21 00:17:24;;;;;;;3.78;1.00;;;;;;;1.36;100.00;92271.69;2131657;27;20049;-74
2022/11/21 00:18:25;;;;;;;6.60;1.00;;;;;;;1.38;100.00;92274.69;2131921;27;20033;-74
2022/11/21 00:19:26;;;;;;;7.65;1.25;;;;;;;1.38;100.00;92271.31;2122710;27;20034;-74
2022/11/21 00:20:27;;;;;;;2.92;0.98;;;;;;;1.38;100.00;92264.16;2122531;27;20027;-74
2022/11/21 00:21:28;;;;;;;4.07;1.00;;;;;;;1.33;100.00;92275.06;2124918;27;20059;-74
2022/11/21 00:22:30;;;;;;;5.07;1.00;;;;;;;1.33;100.00;92274.31;2131087;27;20133;-74
2022/11/21 00:23:31;;;;;;;5.15;1.10;;;;;;;1.35;100.00;92275.44;2131398;27;20042;-74
2022/11/21 00:24:32;;;;;;;8.60;1.20;;;;;;;1.31;100.00;92272.06;2140322;27;20030;-74
2022/11/21 00:25:34;;;;;;;5.43;1.30;;;;;;;1.34;100.00;92281.84;2130813;27;20138;-74
2022/11/21 00:26:36;;;;;;;7.28;1.05;;;;;;;1.35;100.00;92269.41;2129906;27;20105;-75
2022/11/21 00:27:38;;;;;;;3.58;0.98;;;;;;;1.36;100.00;92273.53;2140271;27;20115;-74
2022/11/21 00:28:39;;;;;;;9.45;1.40;;;;;;;1.51;100.00;92267.91;2140318;27;20419;-74
2022/11/21 00:29:40;;;;;;;5.82;1.40;;;;;;;1.71;100.00;92260.34;2140206;27;20123;-74
2022/11/21 00:30:41;;;;;;;8.23;1.10;;;;;;;1.66;100.00;92259.97;2140288;27;20071;-74
2022/11/21 00:31:42;;;;;;;3.55;1.08;;;;;;;1.56;100.00;92250.22;2139311;27;20030;-74
2022/11/21 00:32:43;;;;;;;4.00;1.00;;;;;;;1.49;100.00;92243.06;2140359;27;20018;-74
2022/11/21 00:33:44;;;;;;;5.97;1.02;;;;;;;1.52;100.00;92250.22;2140322;27;20054;-74
2022/11/21 00:34:45;;;;;;;6.38;1.40;;;;;;;1.48;100.00;92250.22;2140344;27;20112;-74
2022/11/21 00:35:46;;;;;;;5.13;1.30;;;;;;;1.47;100.00;92243.44;2140149;27;20090;-74
2022/11/21 00:36:47;;;;;;;8.07;1.42;;;;;;;1.43;100.00;92247.97;2132724;27;20027;-74
2022/11/21 00:37:49;;;;;;;4.85;1.85;;;;;;;1.51;100.00;92248.72;2140315;27;20030;-74
2022/11/21 00:38:50;;;;;;;9.95;1.27;;;;;;;1.55;100.00;92251.34;2140319;27;20407;-74
2022/11/21 00:39:51;;;;;;;6.85;1.40;;;;;;;1.65;100.00;92247.94;2139967;27;20089;-74
2022/11/21 00:40:53;;;;;;;4.47;1.20;;;;;;;1.59;100.00;92244.19;2130943;27;20404;-74
2022/11/21 00:41:54;;;;;;;5.40;1.23;;;;;;;1.53;100.00;92249.06;2130813;27;20023;-74
2022/11/21 00:42:55;;;;;;;8.02;1.25;;;;;;;1.47;100.00;92251.34;2140319;27;20559;-74
2022/11/21 00:43:56;;;;;;;3.38;1.17;;;;;;;1.54;100.00;92240.06;2140463;27;20047;-74
2022/11/21 00:44:57;;;;;;;5.85;1.20;;;;;;;1.55;100.00;92243.44;2140234;27;20033;-75
2022/11/21 00:46:01;;;;;;;7.53;1.42;;;;;;;1.51;100.00;92238.19;2140102;27;20121;-74
2022/11/21 00:47:02;;;;;;;8.98;1.67;;;;;;;1.50;100.00;92245.34;2140164;27;20074;-74
2022/11/21 00:48:03;;;;;;;6.63;1.25;;;;;;;1.48;100.00;92244.94;2131474;27;20091;-74
2022/11/21 00:49:04;;;;;;;7.22;1.50;;;;;;;1.58;100.00;92251.34;2131316;27;20114;-73
2022/11/21 00:50:06;;;;;;;4.55;1.40;;;;;;;1.61;100.00;92247.19;2131648;27;20471;-73
2022/11/21 00:51:07;;;;;;;10.63;1.58;;;;;;;1.52;100.00;92237.78;2131269;27;20096;-73
2022/11/21 00:52:08;;;;;;;6.38;1.45;;;;;;;1.64;100.00;92241.91;2121575;27;20417;-73
2022/11/21 00:53:09;;;;;;;4.55;1.20;;;;;;;1.74;100.00;92238.47;2122120;27;20114;-73
2022/11/21 00:54:10;;;;;;;6.05;1.48;;;;;;;1.80;100.00;92249.41;2131369;27;20079;-73
2022/11/21 00:55:11;;;;;;;9.55;3.00;;;;;;;1.65;100.00;92248.66;2131476;27;20037;-73
2022/11/21 00:56:12;;;;;;;7.60;1.33;;;;;;;1.54;100.00;92252.44;2130406;27;20031;-74
2022/11/21 00:57:13;;;;;;;4.85;1.08;;;;;;;1.72;100.00;92251.28;2130985;27;20064;-74
2022/11/21 00:58:14;;;;;;;4.05;1.15;;;;;;;1.59;100.00;92252.09;2137287;27;20070;-72
2022/11/21 00:59:15;;;;;;;3.08;1.10;;;;;;;1.63;100.00;92245.69;2140192;27;20018;-73
2022/11/21 01:00:17;;;;;;;6.03;1.50;;;;;;;1.55;100.00;92244.19;2140245;27;20026;-74
2022/11/21 01:01:18;;;;;;;7.85;1.48;;;;;;;1.54;100.00;92241.91;2139836;27;20120;-74
2022/11/21 01:02:19;;;;;;;3.45;1.42;;;;;;;1.88;100.00;92236.94;2139984;27;20022;-74
2022/11/21 01:03:20;;;;;;;9.10;1.50;;;;;;;1.70;100.00;92239.63;2139498;27;20054;-74
2022/11/21 01:04:21;;;;;;;10.68;1.30;;;;;;;1.63;100.00;92231.75;2139742;27;20069;-73
2022/11/21 01:05:22;;;;;;;3.20;1.15;;;;;;;1.60;100.00;92221.97;2140162;27;20026;-73
2022/11/21 01:06:23;;;;;;;4.70;1.45;;;;;;;1.61;100.00;92220.84;2135808;27;20926;-74
2022/11/21 01:07:24;;;;;;;7.95;1.27;;;;;;;1.60;100.00;92230.63;2131333;27;20717;-73
2022/11/21 01:08:25;;;;;;;9.07;1.45;;;;;;;1.75;100.00;92223.44;2131104;27;20061;-73
2022/11/21 01:09:27;;;;;;;4.65;1.20;;;;;;;1.63;100.00;92216.72;2136343;27;20022;-73
2022/11/21 01:10:28;;;;;;;10.38;1.80;;;;;;;1.58;100.00;92217.09;2139991;27;20033;-74
2022/11/21 01:11:29;;;;;;;4.15;1.20;;;;;;;1.65;100.00;92208.41;2139735;27;20022;-73
2022/11/21 01:12:30;;;;;;;7.88;1.38;;;;;;;1.60;100.00;92201.66;2139935;27;20093;-73
2022/11/21 01:13:33;;;;;;;8.50;1.48;;;;;;;1.58;100.00;92205.78;2139193;27;20026;-73
2022/11/21 01:14:34;;;;;;;5.70;1.35;;;;;;;1.63;100.00;92198.28;2140069;27;20026;-73
2022/11/21 01:15:35;;;;;;;3.20;1.17;;;;;;;1.68;100.00;92203.13;2139950;27;20026;-73
2022/11/21 01:16:37;;;;;;;1.50;1.15;;;;;;;1.62;100.00;92202.00;2139181;27;20476;-74
2022/11/21 01:17:38;;;;;;;4.28;1.02;;;;;;;1.57;100.00;92201.66;2130583;27;20019;-74
2022/11/21 01:18:40;;;;;;;4.10;1.23;;;;;;;1.51;100.00;92188.91;2127455;27;20034;-74
2022/11/21 01:19:41;;;;;;;3.17;1.10;;;;;;;1.49;100.00;92196.44;2131616;27;20031;-74
2022/11/21 01:20:42;;;;;;;4.32;1.35;;;;;;;1.44;100.00;92194.16;2131463;27;20026;-73
2022/11/21 01:21:43;;;;;;;2.65;1.20;;;;;;;1.44;100.00;92196.81;2131246;27;20026;-74
2022/11/21 01:22:44;;;;;;;8.65;1.45;;;;;;;1.71;100.00;92194.47;2131332;27;20027;-74
2022/11/21 01:23:45;;;;;;;3.22;1.00;;;;;;;1.88;100.00;92192.88;2133111;27;20027;-74
2022/11/21 01:24:46;;;;;;;6.78;1.40;;;;;;;1.73;100.00;92196.72;2140138;27;20032;-74
2022/11/21 01:25:47;;;;;;;5.85;1.23;;;;;;;1.64;100.00;92199.75;2140107;27;20026;-74
2022/11/21 01:26:49;;;;;;;6.90;1.30;;;;;;;1.62;100.00;92204.66;2139440;27;20026;-74
2022/11/21 01:27:50;;;;;;;7.32;1.40;;;;;;;1.55;100.00;92196.78;2139856;27;20030;-73
2022/11/21 01:28:52;;;;;;;5.68;1.40;;;;;;;1.57;100.00;92185.88;2138112;27;20030;-73
2022/11/21 01:29:53;;;;;;;2.83;1.10;;;;;;;1.56;100.00;92192.28;2131069;27;20065;-74
2022/11/21 01:30:54;;;;;;;3.80;1.20;;;;;;;1.54;100.00;92184.00;2131437;27;20023;-73
2022/11/21 01:31:55;;;;;;;8.32;1.20;;;;;;;1.66;100.00;92192.22;2131159;27;20710;-73
2022/11/21 01:32:55;;;;;;;4.30;1.00;;;;;;;1.54;100.00;92184.75;2131173;27;20057;-73
2022/11/21 01:33:58;;;;;;;4.45;1.15;;;;;;;1.53;100.00;92183.25;2131007;27;20453;-73
2022/11/21 01:34:59;;;;;;;6.30;1.35;;;;;;;1.71;100.00;92185.81;2139711;27;20467;-73
2022/11/21 01:36:10;;;;;;;5.53;1.10;;;;;;;1.77;100.00;92182.41;2139081;27;20030;-73
2022/11/21 01:37:11;;;;;;;4.45;1.42;;;;;;;1.67;100.00;92177.19;2131109;27;20507;-73
2022/11/21 01:38:12;;;;;;;2.47;0.90;;;;;;;1.81;100.00;92177.13;2131195;27;20026;-73
2022/11/21 01:39:12;;;;;;;5.30;1.20;;;;;;;1.71;100.00;92176.03;2130848;27;20437;-73
2022/11/21 01:40:14;;;;;;;3.40;1.30;;;;;;;1.57;100.00;92172.69;2131103;27;20053;-73
2022/11/21 01:41:22;;;;;;;5.55;0.98;;;;;;;1.95;100.00;92174.41;2131028;27;20094;-74
2022/11/21 01:42:23;;;;;;;3.38;1.00;;;;;;;1.74;100.00;92171.88;2131127;27;20026;-73
2022/11/21 01:43:24;;;;;;;4.55;0.90;;;;;;;1.72;100.00;92171.53;2121733;27;20122;-73
2022/11/21 01:44:45;;;;;;;3.88;1.15;;;;;;;1.54;100.00;92162.91;2113976;27;20478;-72
2022/11/21 01:46:12;;;;;;;2.65;1.10;;;;;;;1.47;100.00;92159.19;2133532;27;20726;-72
2022/11/21 01:47:13;;;;;;;4.10;2.47;;;;;;;1.35;100.00;92164.88;2130431;27;20125;-72
2022/11/21 01:48:14;;;;;;;3.58;1.08;;;;;;;1.28;100.00;92159.63;2130202;27;20026;-72
2022/11/21 01:49:23;;;;;;;4.97;1.30;;;;;;;1.23;100.00;92152.88;2139677;27;20022;-72
2022/11/21 01:50:24;;;;;;;9.25;1.25;;;;;;;1.16;100.00;92147.63;2138871;27;20022;-72
2022/11/21 01:51:47;;;;;;;3.47;0.80;;;;;;;1.15;100.00;92140.88;2139568;27;20029;-72
2022/11/21 01:52:48;;;;;;;2.92;1.33;;;;;;;1.23;100.00;92134.47;2139537;27;20026;-72
2022/11/21 01:53:58;;;;;;;5.55;1.00;;;;;;;1.23;100.00;92129.19;2139707;27;20348;-72
2022/11/21 01:55:04;;;;;;;4.53;0.90;;;;;;;1.14;100.00;92125.44;2136740;27;20126;-72
2022/11/21 01:56:07;;;;;;;4.97;1.08;;;;;;;1.17;100.00;92140.47;2130767;27;20026;-73
2022/11/21 01:57:28;;;;;;;2.38;0.80;;;;;;;1.31;100.00;92140.44;2130886;27;20024;-72
2022/11/21 01:58:33;;;;;;;2.45;0.95;;;;;;;1.27;100.00;92144.94;2130911;27;20432;-72
2022/11/21 01:59:43;;;;;;;6.25;1.40;;;;;;;1.25;100.00;92147.22;2130887;27;20034;-72
2022/11/21 02:00:46;;;;;;;1.92;1.00;;;;;;;1.33;100.00;92132.16;2130928;27;20097;-73
2022/11/21 02:01:50;;;;;;;2.88;1.42;;;;;;;1.39;100.00;92139.28;2131330;27;20456;-72
2022/11/21 02:02:55;;;;;;;3.63;1.38;;;;;;;1.38;100.00;92147.56;2130928;27;20026;-73
2022/11/21 02:03:59;;;;;;;7.10;1.40;;;;;;;1.26;100.00;92156.63;2131163;27;20152;-72
2022/11/21 02:05:01;;;;;;;3.38;1.00;;;;;;;1.36;100.00;92147.97;2130781;27;20023;-73
2022/11/21 02:06:04;;;;;;;5.43;1.17;;;;;;;1.21;100.00;92149.13;2136650;27;20046;-73
2022/11/21 02:07:06;;;;;;;4.53;1.27;;;;;;;1.20;100.00;92147.63;2130907;27;20026;-72
2022/11/21 02:08:18;;;;;;;2.63;1.02;;;;;;;1.26;100.00;92149.47;2130455;27;20027;-72
2022/11/21 02:09:20;;;;;;;2.65;1.00;;;;;;;1.18;100.00;92142.72;2134796;27;20029;-72
2022/11/21 02:10:22;;;;;;;4.03;1.13;;;;;;;1.23;100.00;92137.09;2139361;27;20034;-72
2022/11/21 02:11:57;;;;;;;4.65;1.20;;;;;;;1.14;100.00;92142.00;2139543;27;20026;-73
2022/11/21 02:12:59;;;;;;;4.13;0.93;;;;;;;1.20;100.00;92139.72;2095750;28;20036;-74
2022/11/21 02:14:00;;;;;;;6.53;1.13;;;;;;;1.28;100.00;92138.56;2095765;28;20040;-74
2022/11/21 02:16:44;;;;;;;;;;;;;;;1.21;100.00;92133.31;2147278;27;20542;-73
2022/11/21 02:17:46;;;;;;;2.53;0.75;;;;;;;1.20;100.00;92139.72;2147195;27;20013;-74
2022/11/21 02:18:47;;;;;;;2.50;0.70;;;;;;;1.38;100.00;92134.41;2147002;27;20109;-73
2022/11/21 02:19:58;;;;;;;2.95;1.20;;;;;;;1.40;100.00;92127.59;2147075;27;20056;-74
2022/11/21 02:21:21;;;;;;;2.72;0.75;;;;;;;1.30;100.00;92141.56;2146465;27;20085;-73
2022/11/21 02:23:07;;;;;;;1.33;0.75;;;;;;;1.30;100.00;92138.19;2147294;27;20025;-73
2022/11/21 02:24:11;;;;;;;2.08;0.70;;;;;;;1.41;100.00;92128.38;2142699;27;20030;-73
2022/11/21 02:25:17;;;;;;;2.35;0.70;;;;;;;1.55;100.00;92136.22;2147060;27;20030;-74
2022/11/21 02:26:18;;;;;;;1.70;0.55;;;;;;;1.47;100.00;92134.75;2138622;27;20456;-74
2022/11/21 02:27:19;;;;;;;1.38;0.50;;;;;;;1.46;100.00;92136.63;2138378;27;20547;-74
2022/11/21 02:28:25;;;;;;;3.50;0.60;;;;;;;1.44;100.00;92130.97;2138286;27;20026;-74
2022/11/21 02:29:27;;;;;;;1.73;0.40;;;;;;;1.91;100.00;92128.91;2138315;27;20085;-74
2022/11/21 02:30:30;;;;;;;0.75;0.50;;;;;;;1.88;100.00;92124.38;2138467;27;20091;-74
2022/11/21 02:31:31;;;;;;;2.03;0.75;;;;;;;1.79;100.00;92121.44;2138011;27;20105;-73
2022/11/21 02:32:41;;;;;;;1.92;0.57;;;;;;;1.64;100.00;92115.50;2138249;27;20086;-74
2022/11/21 02:33:42;;;;;;;1.10;0.52;;;;;;;1.59;100.00;92109.88;2138251;27;20031;-74
2022/11/21 02:34:43;;;;;;;3.25;0.57;;;;;;;1.63;100.00;92110.63;2138261;27;20034;-74
2022/11/21 02:35:54;;;;;;;2.45;0.63;;;;;;;1.66;100.00;92107.19;2138229;27;20399;-74
2022/11/21 02:36:55;;;;;;;1.40;0.60;;;;;;;1.58;100.00;92113.63;2137764;27;20356;-74
2022/11/21 02:37:58;;;;;;;1.35;0.50;;;;;;;1.59;100.00;92120.41;2138312;27;20054;-74
2022/11/21 02:38:59;;;;;;;2.97;0.60;;;;;;;1.82;100.00;92112.75;2138067;27;20072;-74
2022/11/21 02:40:24;;;;;;;1.48;0.55;;;;;;;1.91;100.00;92110.44;2138236;27;20022;-74
2022/11/21 02:41:28;;;;;;;1.80;0.57;;;;;;;2.07;100.00;92109.25;2138263;27;20033;-74
2022/11/21 02:42:37;;;;;;;4.80;0.70;;;;;;;1.90;100.00;92114.22;2146311;27;20416;-74
2022/11/21 02:43:50;;;;;;;3.85;0.50;;;;;;;2.07;100.00;92112.63;2146749;27;20380;-74
2022/11/21 02:45:02;;;;;;;2.17;0.60;;;;;;;2.06;100.00;92110.34;2146923;27;20074;-74
2022/11/21 02:46:03;;;;;;;3.72;0.70;;;;;;;1.97;100.00;92116.06;2146560;27;20173;-75
2022/11/21 02:47:04;;;;;;;2.33;0.75;;;;;;;1.96;100.00;92114.56;2146012;27;20113;-75
2022/11/21 02:48:05;;;;;;;2.00;0.63;;;;;;;1.80;100.00;92111.63;2146961;27;20030;-74
2022/11/21 02:49:08;;;;;;;3.00;0.68;;;;;;;1.81;100.00;92110.53;2146524;27;20512;-74
2022/11/21 02:50:13;;;;;;;3.47;0.80;;;;;;;1.96;100.00;92110.03;2146932;27;20021;-74
2022/11/21 02:51:14;;;;;;;2.88;1.00;;;;;;;2.13;100.00;92107.69;2146918;27;20030;-74
2022/11/21 02:52:15;;;;;;;1.55;0.60;;;;;;;2.05;100.00;92103.59;2143424;27;20038;-74
2022/11/21 02:53:18;;;;;;;3.95;0.60;;;;;;;2.00;100.00;92094.22;2138214;27;20031;-74
2022/11/21 02:54:19;;;;;;;1.60;0.52;;;;;;;2.18;100.00;92102.00;2137962;27;20041;-75
2022/11/21 02:55:21;;;;;;;3.83;0.60;;;;;;;2.22;100.00;92085.03;2138213;27;20035;-75
2022/11/21 02:56:22;;;;;;;4.30;0.80;;;;;;;2.22;100.00;92105.38;2137711;27;20619;-74
2022/11/21 02:57:23;;;;;;;5.10;0.60;;;;;;;2.20;100.00;92099.75;2139891;27;20038;-75
2022/11/21 02:58:24;;;;;;;2.50;0.77;;;;;;;2.39;100.00;92109.75;2137525;27;20059;-75
2022/11/21 02:59:25;;;;;;;7.68;0.73;;;;;;;2.34;100.00;92104.91;2137372;27;20027;-74
2022/11/21 03:00:26;;;;;;;0.57;0.50;;;;;;;2.23;100.00;92106.84;2146824;27;20033;-75
2022/11/21 03:01:27;;;;;;;2.28;0.60;;;;;;;2.11;100.00;92109.94;2146723;27;20033;-74
2022/11/21 03:02:28;;;;;;;2.17;0.65;;;;;;;2.05;100.00;92117.53;2145059;27;20436;-74
2022/11/21 03:03:29;;;;;;;4.25;0.50;;;;;;;1.98;100.00;92113.06;2138151;27;20068;-74
2022/11/21 03:04:30;;;;;;;4.18;0.50;;;;;;;2.06;100.00;92123.53;2137955;27;20018;-74
2022/11/21 03:05:31;;;;;;;3.85;0.75;;;;;;;2.01;100.00;92122.06;2138065;27;20519;-74
2022/11/21 03:06:32;;;;;;;1.20;0.63;;;;;;;2.04;100.00;92133.72;2137738;27;20071;-73
2022/11/21 03:07:33;;;;;;;2.95;0.35;;;;;;;1.99;100.00;92122.44;2137657;27;20163;-74
2022/11/21 03:08:34;;;;;;;1.05;0.50;;;;;;;1.96;100.00;92123.22;2137976;27;20022;-73
2022/11/21 03:09:35;;;;;;;1.13;0.38;;;;;;;2.24;100.00;92119.66;2144050;27;20018;-73
2022/11/21 03:10:36;;;;;;;1.98;0.32;;;;;;;2.16;100.00;92112.94;2146696;27;20372;-74
2022/11/21 03:11:37;;;;;;;1.52;0.40;;;;;;;1.95;100.00;92110.44;2146761;27;20026;-74
2022/11/21 03:12:39;;;;;;;3.85;0.40;;;;;;;1.86;100.00;92118.03;2146807;27;20021;-74
2022/11/21 03:13:40;;;;;;;0.45;0.40;;;;;;;1.89;100.00;92117.22;2146225;27;20034;-74
2022/11/21 03:14:41;;;;;;;0.77;0.43;;;;;;;2.00;100.00;92115.28;2146483;27;20025;-73
2022/11/21 03:15:42;;;;;;;1.35;0.50;;;;;;;1.91;100.00;92107.81;2146681;27;20050;-74
2022/11/21 03:16:43;;;;;;;0.35;0.30;;;;;;;1.88;100.00;92108.56;2146549;27;20030;-74
2022/11/21 03:17:48;;;;;;;2.70;0.50;;;;;;;2.05;100.00;92106.22;2146812;27;20105;-74
2022/11/21 03:18:49;;;;;;;1.10;0.40;;;;;;;2.08;100.00;92111.47;2136492;27;20029;-74
2022/11/21 03:19:51;;;;;;;1.13;0.20;;;;;;;1.96;100.00;92101.38;2137289;27;20026;-74
2022/11/21 03:20:52;;;;;;;0.52;0.32;;;;;;;2.00;100.00;92096.84;2146608;27;20029;-74
2022/11/21 03:21:53;;;;;;;0.80;0.40;;;;;;;1.84;100.00;92094.66;2146739;27;20452;-74
2022/11/21 03:22:54;;;;;;;2.22;0.30;;;;;;;1.77;100.00;92097.38;2146833;27;20014;-74
2022/11/21 03:23:55;;;;;;;1.02;0.40;;;;;;;1.94;100.00;92104.41;2143582;27;20045;-74
2022/11/21 03:24:56;;;;;;;1.20;0.50;;;;;;;1.81;100.00;92100.72;2137641;27;20061;-74
2022/11/21 03:25:58;;;;;;;0.93;0.40;;;;;;;1.76;100.00;92104.53;2137738;27;20499;-75
2022/11/21 03:27:00;;;;;;;3.47;0.95;;;;;;;1.69;100.00;92104.53;2137520;27;20041;-74
2022/11/21 03:28:01;;;;;;;0.30;0.30;;;;;;;1.61;100.00;92103.06;2132580;27;20034;-74
2022/11/21 03:29:02;;;;;;;0.55;0.40;;;;;;;1.67;100.00;92106.09;2133130;27;20030;-74
2022/11/21 03:30:03;;;;;;;1.55;0.60;;;;;;;1.72;100.00;92108.31;2140640;27;20465;-75
2022/11/21 03:31:04;;;;;;;0.52;0.40;;;;;;;1.67;100.00;92112.09;2140751;27;20430;-75
2022/11/21 03:32:05;;;;;;;0.60;0.40;;;;;;;1.77;100.00;92110.53;2140795;27;20026;-74
2022/11/21 03:33:06;;;;;;;0.82;0.30;;;;;;;1.72;100.00;92106.41;2140829;27;20025;-74
2022/11/21 03:34:07;;;;;;;1.42;0.30;;;;;;;1.76;100.00;92114.31;2139903;27;20032;-74
2022/11/21 03:35:08;;;;;;;0.88;0.30;;;;;;;1.67;100.00;92109.47;2140630;27;20022;-74
2022/11/21 03:36:09;;;;;;;2.33;0.45;;;;;;;1.61;100.00;92112.88;2138372;27;20026;-73
2022/11/21 03:37:10;;;;;;;1.27;0.35;;;;;;;1.62;100.00;92114.34;2132103;27;20030;-75
2022/11/21 03:38:11;;;;;;;4.43;0.50;;;;;;;1.60;100.00;92114.75;2132005;27;20034;-74
2022/11/21 03:39:12;;;;;;;0.60;0.40;;;;;;;1.54;100.00;92100.50;2131878;27;20361;-74
2022/11/21 03:40:13;;;;;;;1.30;0.55;;;;;;;1.51;100.00;92109.16;2140011;27;20457;-74
2022/11/21 03:41:29;;;;;;;0.88;0.40;;;;;;;1.54;100.00;92111.03;2140518;27;20030;-70
2022/11/21 03:42:30;;;;;;;0.55;0.30;;;;;;;1.65;100.00;92122.25;2140567;27;20018;-75
2022/11/21 03:43:31;;;;;;;0.68;0.35;;;;;;;1.75;100.00;92118.06;2131489;27;20061;-73
2022/11/21 03:44:32;;;;;;;1.55;0.30;;;;;;;1.89;100.00;92123.28;2130088;27;20035;-73
2022/11/21 03:45:33;;;;;;;0.77;0.32;;;;;;;1.75;100.00;92121.44;2131558;27;20041;-74
2022/11/21 03:46:39;;;;;;;3.10;0.50;;;;;;;1.67;100.00;92111.34;2131760;27;20031;-73
2022/11/21 03:47:40;;;;;;;0.90;0.40;;;;;;;1.59;100.00;92112.50;2132033;27;20141;-72
2022/11/21 03:48:41;;;;;;;1.65;0.40;;;;;;;1.53;100.00;92114.78;2132075;27;20045;-73
2022/11/21 03:49:43;;;;;;;1.63;0.40;;;;;;;1.59;100.00;92120.41;2131784;27;20463;-74
2022/11/21 03:50:43;;;;;;;0.60;0.30;;;;;;;1.56;100.00;92119.28;2131391;27;20058;-74
2022/11/21 03:51:44;;;;;;;7.97;0.47;;;;;;;1.46;100.00;92120.84;2131770;27;20019;-75
2022/11/21 03:52:45;;;;;;;1.30;0.30;;;;;;;1.50;100.00;92115.56;2140931;27;20030;-75
2022/11/21 03:53:47;;;;;;;0.68;0.40;;;;;;;1.70;100.00;92106.03;2131505;27;20027;-73
2022/11/21 03:54:48;;;;;;;0.30;0.30;;;;;;;1.63;100.00;92116.63;2131452;27;20030;-73
2022/11/21 03:55:49;;;;;;;0.93;0.28;;;;;;;1.77;100.00;92119.19;2136051;27;20023;-74
2022/11/21 03:56:49;;;;;;;0.28;0.25;;;;;;;1.54;100.00;92108.41;2131950;27;20057;-73
2022/11/21 03:57:50;;;;;;;0.57;0.30;;;;;;;1.49;100.00;92114.03;2131871;27;20185;-74
2022/11/21 03:58:52;;;;;;;0.30;0.20;;;;;;;1.37;100.00;92117.13;2131959;27;20057;-72
2022/11/21 03:59:53;;;;;;;0.20;0.20;;;;;;;1.63;100.00;92114.00;2131900;27;20453;-70
2022/11/21 04:00:54;;;;;;;1.30;0.35;;;;;;;1.76;100.00;92117.69;2134269;27;20022;-71
2022/11/21 04:01:55;;;;;;;0.20;0.20;;;;;;;1.55;100.00;92111.78;2140591;27;20026;-71
2022/11/21 04:02:56;;;;;;;0.30;0.20;;;;;;;1.36;100.00;92100.56;2140551;27;20023;-71
2022/11/21 04:03:57;;;;;;;0.32;0.30;;;;;;;1.47;100.00;92106.53;2140578;27;20030;-72
2022/11/21 04:04:58;;;;;;;1.75;0.45;;;;;;;1.32;100.00;92106.97;2140551;27;20034;-73
2022/11/21 04:05:59;;;;;;;0.57;0.30;;;;;;;1.22;100.00;92114.50;2137548;27;20066;-73
2022/11/21 04:07:00;;;;;;;1.17;0.20;;;;;;;1.15;100.00;92119.81;2122612;27;20027;-72
2022/11/21 04:08:01;;;;;;;1.20;0.30;;;;;;;1.13;100.00;92119.44;2122881;27;20031;-72
2022/11/21 04:09:02;;;;;;;0.30;0.20;;;;;;;1.17;100.00;92122.06;2133494;27;20043;-72
2022/11/21 04:10:03;;;;;;;3.35;0.40;;;;;;;1.44;100.00;92128.34;2140655;27;20461;-72
2022/11/21 04:11:05;;;;;;;1.45;0.30;;;;;;;1.21;100.00;92125.44;2139584;27;20025;-72
2022/11/21 04:12:06;;;;;;;0.65;0.30;;;;;;;1.14;100.00;92122.81;2140588;27;20038;-72
2022/11/21 04:13:07;;;;;;;3.83;0.20;;;;;;;1.06;100.00;92121.34;2140483;27;20037;-72
2022/11/21 04:14:08;;;;;;;0.10;0.10;;;;;;;0.97;100.00;92108.59;2140364;27;20022;-71
2022/11/21 04:15:09;;;;;;;2.95;0.10;;;;;;;0.95;100.00;92113.47;2131062;27;20391;-71
2022/11/21 04:16:10;;;;;;;1.40;0.20;;;;;;;0.87;100.00;92111.97;2129755;27;20046;-71
2022/11/21 04:17:11;;;;;;;1.40;0.10;;;;;;;0.77;100.00;92105.59;2131798;27;20119;-71
2022/11/21 04:18:12;;;;;;;0.80;0.20;;;;;;;0.74;100.00;92103.72;2131877;27;20026;-71
2022/11/21 04:19:13;;;;;;;0.10;0.10;;;;;;;0.72;100.00;92111.25;2131625;27;20078;-71
2022/11/21 04:20:14;;;;;;;1.45;0.40;;;;;;;0.67;100.00;92115.03;2131813;27;20034;-72
2022/11/21 04:21:15;;;;;;;0.10;0.10;;;;;;;0.66;100.00;92112.75;2131063;27;20045;-71
2022/11/21 04:22:16;;;;;;;0.98;0.10;;;;;;;0.72;100.00;92116.50;2138645;27;20045;-71
2022/11/21 04:23:17;;;;;;;0.10;0.10;;;;;;;0.68;100.00;92113.13;2140349;27;20499;-71
2022/11/21 04:24:18;;;;;;;0.30;0.22;;;;;;;0.67;100.00;92111.63;2140533;27;20030;-71
2022/11/21 04:25:19;;;;;;;0.47;0.20;;;;;;;0.80;100.00;92120.63;2140492;27;20356;-73
2022/11/21 04:26:20;;;;;;;0.60;0.20;;;;;;;0.73;100.00;92121.38;2140063;27;20551;-72
2022/11/21 04:27:21;;;;;;;0.75;0.20;;;;;;;0.76;100.00;92119.88;2123963;27;20084;-72
2022/11/21 04:28:23;;;;;;;0.35;0.30;;;;;;;0.99;100.00;92120.22;2122852;27;20104;-72
2022/11/21 04:29:24;;;;;;;1.52;0.52;;;;;;;1.05;100.00;92109.28;2122713;27;20031;-72
2022/11/21 04:30:26;;;;;;;1.27;0.30;;;;;;;1.03;100.00;92114.94;2121801;27;20050;-71
2022/11/21 04:31:27;;;;;;;0.32;0.32;;;;;;;1.10;100.00;92114.94;2113775;28;20127;-72
2022/11/21 04:32:28;;;;;;;1.20;0.40;;;;;;;1.08;100.00;92119.81;2119898;27;20026;-75
2022/11/21 04:33:29;;;;;;;1.63;0.60;;;;;;;1.02;100.00;92115.34;2131710;27;20027;-72
2022/11/21 04:34:30;;;;;;;3.20;0.57;;;;;;;0.98;100.00;92113.47;2131600;27;20508;-72
2022/11/21 04:35:31;;;;;;;2.55;0.50;;;;;;;1.16;100.00;92113.41;2131693;27;20037;-72
2022/11/21 04:36:32;;;;;;;3.58;0.70;;;;;;;1.25;100.00;92120.91;2125559;27;20030;-72
2022/11/21 04:37:33;;;;;;;1.58;0.60;;;;;;;1.26;100.00;92112.63;2127070;27;20085;-72
2022/11/21 04:38:34;;;;;;;3.40;0.60;;;;;;;1.47;100.00;92111.03;2140171;27;20752;-74
2022/11/21 04:39:35;;;;;;;2.50;0.63;;;;;;;1.67;100.00;92116.63;2139186;27;20520;-75
2022/11/21 04:40:36;;;;;;;5.25;0.75;;;;;;;1.59;100.00;92115.88;2130877;27;20026;-75
2022/11/21 04:41:37;;;;;;;2.33;0.73;;;;;;;1.61;100.00;92116.25;2130997;27;20027;-75
2022/11/21 04:42:45;;;;;;;1.08;0.50;;;;;;;1.57;100.00;92112.13;2139525;27;20057;-74
2022/11/21 04:43:46;;;;;;;4.93;0.98;;;;;;;1.49;100.00;92117.44;2130835;27;20449;-74
2022/11/21 04:44:47;;;;;;;4.75;0.95;;;;;;;1.80;100.00;92125.59;2131429;27;20037;-72
2022/11/21 04:45:48;;;;;;;0.93;0.70;;;;;;;1.82;100.00;92114.66;2131515;27;20038;-73
2022/11/21 04:46:51;;;;;;;2.13;0.68;;;;;;;1.77;100.00;92113.91;2131101;27;20031;-73
2022/11/21 04:47:51;;;;;;;5.55;0.93;;;;;;;1.62;100.00;92117.75;2131135;27;20026;-72
2022/11/21 04:48:52;;;;;;;4.70;1.23;;;;;;;1.68;100.00;92116.22;2140023;27;20030;-72
2022/11/21 04:49:54;;;;;;;4.65;1.08;;;;;;;1.80;100.00;92117.69;2140181;27;20030;-73
2022/11/21 04:50:55;;;;;;;3.53;0.82;;;;;;;1.65;100.00;92124.13;2139909;27;20504;-73
2022/11/21 04:51:56;;;;;;;6.80;0.98;;;;;;;1.65;100.00;92127.50;2140130;27;20026;-73
2022/11/21 04:52:57;;;;;;;7.07;1.10;;;;;;;1.87;100.00;92135.31;2140022;27;20026;-73
2022/11/21 04:53:58;;;;;;;5.35;1.02;;;;;;;2.03;100.00;92132.97;2136215;27;20045;-72
2022/11/21 04:54:59;;;;;;;4.85;0.95;;;;;;;2.01;100.00;92133.34;2131295;27;20364;-73
2022/11/21 04:56:04;;;;;;;4.30;1.10;;;;;;;2.07;100.00;92135.59;2131249;27;20023;-73
2022/11/21 04:57:06;;;;;;;5.40;1.08;;;;;;;1.87;100.00;92127.41;2131329;27;20026;-74